Time;durP1;ratioP1;P1;durP2;ratioP2;P2;SDS_P1;SDS_P2;PMS_P1;PMS_P2;Temp;Humidity;BMP_temperature;BMP_pressure;BME280_temperature;BME280_humidity;BME280_pressure;Samples;Min_cycle;Max_cycle;Signal;HPM_P1;HPM_P2
2022/10/09 00:01:05;;;;;;;0.70;0.60;;;7.30;99.90;;;;;;5056400;28;20048;-78
2022/10/09 00:03:32;;;;;;;1.35;0.70;;;7.20;99.90;;;;;;5038563;28;20101;-78
2022/10/09 00:05:58;;;;;;;1.00;0.65;;;7.00;99.90;;;;;;5055720;28;20040;-78
2022/10/09 00:08:23;;;;;;;2.25;0.80;;;7.10;99.90;;;;;;5022472;28;20396;-77
2022/10/09 00:10:49;;;;;;;1.17;0.60;;;7.20;99.90;;;;;;5040874;28;20079;-77
2022/10/09 00:13:15;;;;;;;1.05;0.63;;;7.30;99.90;;;;;;5074759;28;20400;-78
2022/10/09 00:15:43;;;;;;;1.15;0.60;;;7.10;99.90;;;;;;5058376;28;20044;-77
2022/10/09 00:18:11;;;;;;;0.93;0.52;;;7.00;99.90;;;;;;5074958;28;20364;-77
2022/10/09 00:20:42;;;;;;;1.30;0.80;;;7.30;99.90;;;;;;5025572;28;20136;-78
2022/10/09 00:23:08;;;;;;;1.23;0.65;;;7.30;99.90;;;;;;5075801;28;20048;-77
2022/10/09 00:25:34;;;;;;;0.85;0.68;;;7.20;99.90;;;;;;5075303;28;20514;-77
2022/10/09 00:28:01;;;;;;;1.00;0.60;;;7.00;99.90;;;;;;5075162;28;20040;-78
2022/10/09 00:30:27;;;;;;;0.82;0.50;;;7.30;99.90;;;;;;5057782;28;20075;-77
2022/10/09 00:32:54;;;;;;;1.08;0.50;;;7.20;99.90;;;;;;5075052;28;20444;-77
2022/10/09 00:35:20;;;;;;;1.05;0.70;;;6.90;99.90;;;;;;5074332;28;20039;-77
2022/10/09 00:37:47;;;;;;;1.08;0.73;;;7.30;99.90;;;;;;5029976;28;20036;-70
2022/10/09 00:40:14;;;;;;;0.75;0.47;;;7.20;99.90;;;;;;5062303;28;20048;-69
2022/10/09 00:42:40;;;;;;;1.20;0.70;;;7.00;99.90;;;;;;5074861;28;20089;-70
2022/10/09 00:45:15;;;;;;;1.08;0.63;;;7.20;99.90;;;;;;5074421;28;20095;-69
2022/10/09 00:47:44;;;;;;;1.38;0.90;;;6.90;99.90;;;;;;5059354;28;20535;-69
2022/10/09 00:50:21;;;;;;;1.30;0.73;;;6.90;99.90;;;;;;5056766;28;20032;-70
2022/10/09 00:52:52;;;;;;;;;;;6.80;99.90;;;;;;5073947;28;20115;-69
2022/10/09 00:55:19;;;;;;;1.38;0.80;;;7.10;99.90;;;;;;5074659;28;19920;-77
2022/10/09 00:57:45;;;;;;;0.93;0.68;;;6.80;99.90;;;;;;5074147;28;20122;-77
2022/10/09 01:00:13;;;;;;;0.98;0.70;;;7.00;99.90;;;;;;5073895;28;20039;-77
2022/10/09 01:02:39;;;;;;;1.15;0.70;;;7.00;99.90;;;;;;5074988;28;20078;-77
2022/10/09 01:05:06;;;;;;;0.80;0.70;;;6.70;99.90;;;;;;5058101;28;20036;-77
2022/10/09 01:07:55;;;;;;;0.80;0.63;;;7.10;99.90;;;;;;5040934;28;20055;-77
2022/10/09 01:10:24;;;;;;;1.52;0.80;;;6.80;99.90;;;;;;5044733;28;20044;-77
2022/10/09 01:13:20;;;;;;;2.20;0.90;;;6.90;99.90;;;;;;5054691;28;20044;-78
2022/10/09 01:15:53;;;;;;;1.90;0.80;;;7.10;99.90;;;;;;5069926;28;20464;-77
2022/10/09 01:18:36;;;;;;;0.95;0.68;;;7.00;99.90;;;;;;5057775;28;20497;-78
2022/10/09 01:21:13;;;;;;;2.30;0.80;;;7.40;99.90;;;;;;5072300;28;20056;-78
2022/10/09 01:23:54;;;;;;;;;;;7.40;99.90;;;;;;5074731;28;20518;-77
2022/10/09 01:26:38;;;;;;;1.33;0.63;;;7.40;99.90;;;;;;5056373;28;20035;-77
2022/10/09 01:29:08;;;;;;;0.93;0.52;;;7.10;99.90;;;;;;5054082;28;20048;-77
2022/10/09 01:31:40;;;;;;;1.42;0.43;;;7.40;99.90;;;;;;5037510;28;20546;-77
2022/10/09 01:34:08;;;;;;;0.70;0.57;;;7.30;99.90;;;;;;5070733;28;20059;-70
2022/10/09 01:36:35;;;;;;;1.13;0.50;;;7.10;99.90;;;;;;5072102;28;20051;-70
2022/10/09 01:39:03;;;;;;;1.13;0.45;;;7.00;99.90;;;;;;5073830;28;20094;-70
2022/10/09 01:41:29;;;;;;;0.60;0.50;;;7.30;99.90;;;;;;5073916;28;20047;-70
2022/10/09 01:43:55;;;;;;;0.80;0.70;;;7.00;99.90;;;;;;5072602;28;20534;-70
2022/10/09 01:46:28;;;;;;;1.25;0.50;;;7.30;99.90;;;;;;5053243;28;20094;-70
2022/10/09 01:49:35;;;;;;;0.80;0.50;;;6.90;99.90;;;;;;5073498;28;20075;-70
2022/10/09 01:52:33;;;;;;;0.85;0.40;;;6.90;99.90;;;;;;5073632;28;20131;-71
2022/10/09 01:55:20;;;;;;;0.38;0.35;;;7.20;99.90;;;;;;5067920;28;20391;-70
2022/10/09 01:58:18;;;;;;;0.60;0.50;;;7.10;99.90;;;;;;5059493;28;20063;-70
2022/10/09 02:00:52;;;;;;;0.65;0.43;;;6.80;99.90;;;;;;5051405;28;20489;-70
2022/10/09 02:03:18;;;;;;;0.98;0.52;;;7.00;99.90;;;;;;5058021;28;20040;-70
2022/10/09 02:05:47;;;;;;;0.85;0.60;;;7.00;99.90;;;;;;5068325;28;20047;-71
2022/10/09 02:08:17;;;;;;;1.30;0.70;;;6.80;99.90;;;;;;5064401;28;20107;-70
2022/10/09 02:10:44;;;;;;;0.85;0.60;;;6.80;99.90;;;;;;5056680;28;20050;-70
2022/10/09 02:13:10;;;;;;;1.00;0.50;;;6.70;99.90;;;;;;5068911;28;20042;-70
2022/10/09 02:15:40;;;;;;;;;;;7.00;99.90;;;;;;5074505;28;20039;-70
2022/10/09 02:18:10;;;;;;;1.05;0.60;;;6.80;99.90;;;;;;5054536;28;19946;-70
2022/10/09 02:20:43;;;;;;;1.63;0.50;;;6.70;99.90;;;;;;5052995;28;20048;-71
2022/10/09 02:23:12;;;;;;;0.82;0.50;;;6.70;99.90;;;;;;5036196;28;20357;-70
2022/10/09 02:25:38;;;;;;;1.15;0.70;;;6.70;99.90;;;;;;5052813;28;20056;-71
2022/10/09 02:28:05;;;;;;;0.70;0.50;;;6.80;99.90;;;;;;5069347;28;20608;-70
2022/10/09 02:31:14;;;;;;;0.43;0.40;;;6.80;99.90;;;;;;5056258;28;20067;-70
2022/10/09 02:33:39;;;;;;;1.52;0.43;;;7.00;99.90;;;;;;5044380;28;20055;-71
2022/10/09 02:36:05;;;;;;;0.63;0.50;;;6.80;99.90;;;;;;5038538;28;20039;-70
2022/10/09 02:38:31;;;;;;;0.68;0.68;;;6.60;99.90;;;;;;5039463;28;20069;-71
2022/10/09 02:40:58;;;;;;;1.33;0.80;;;7.00;99.90;;;;;;5056181;28;20105;-70
2022/10/09 02:43:24;;;;;;;0.88;0.65;;;7.10;99.90;;;;;;5090540;28;20383;-72
2022/10/09 02:45:50;;;;;;;0.93;0.73;;;6.70;99.90;;;;;;5071478;28;20040;-71
2022/10/09 02:48:15;;;;;;;1.35;0.60;;;6.60;99.90;;;;;;5072544;28;20043;-71
2022/10/09 02:50:41;;;;;;;1.85;0.52;;;6.60;99.90;;;;;;5055266;28;20040;-71
2022/10/09 02:53:07;;;;;;;0.88;0.70;;;6.90;99.90;;;;;;5060899;28;20459;-70
2022/10/09 02:55:34;;;;;;;0.75;0.73;;;6.60;99.90;;;;;;5062756;28;20428;-70
2022/10/09 02:58:00;;;;;;;0.50;0.50;;;6.40;99.90;;;;;;5080545;28;20109;-71
2022/10/09 03:00:26;;;;;;;0.75;0.65;;;6.50;99.90;;;;;;5077996;28;20076;-70
2022/10/09 03:02:52;;;;;;;1.58;0.80;;;6.80;99.90;;;;;;5092702;28;20044;-70
2022/10/09 03:05:17;;;;;;;0.90;0.55;;;6.80;99.90;;;;;;5055350;28;20037;-70
2022/10/09 03:07:50;;;;;;;1.42;0.80;;;6.80;99.90;;;;;;5054548;28;20044;-71
2022/10/09 03:10:19;;;;;;;1.40;0.80;;;6.50;99.90;;;;;;5056021;28;20124;-71
2022/10/09 03:12:45;;;;;;;0.70;0.70;;;6.70;99.90;;;;;;5072070;28;20040;-71
2022/10/09 03:15:11;;;;;;;1.05;0.70;;;6.70;99.90;;;;;;5073706;28;20051;-71
2022/10/09 03:17:37;;;;;;;1.17;0.70;;;6.70;99.90;;;;;;5067123;28;20131;-70
2022/10/09 03:20:03;;;;;;;0.50;0.40;;;6.40;99.90;;;;;;5063091;28;20123;-70
2022/10/09 03:22:29;;;;;;;0.88;0.50;;;6.50;99.90;;;;;;5096546;28;20040;-70
2022/10/09 03:24:54;;;;;;;1.17;0.60;;;6.30;99.90;;;;;;5075669;28;20052;-71
2022/10/09 03:27:20;;;;;;;0.77;0.47;;;6.60;99.90;;;;;;5042464;28;20581;-70
2022/10/09 03:29:46;;;;;;;2.03;0.80;;;6.70;99.90;;;;;;5039455;28;20119;-70
2022/10/09 03:32:12;;;;;;;1.67;0.70;;;6.70;99.90;;;;;;5056544;28;20037;-70
2022/10/09 03:34:37;;;;;;;1.15;0.60;;;6.40;99.90;;;;;;5039271;28;20403;-70
2022/10/09 03:37:03;;;;;;;1.20;0.80;;;6.80;99.90;;;;;;5051295;28;20052;-70
2022/10/09 03:39:29;;;;;;;1.02;0.73;;;6.80;99.90;;;;;;5058512;28;20044;-70
2022/10/09 03:41:55;;;;;;;1.08;0.47;;;6.70;99.90;;;;;;5055217;28;20036;-70
2022/10/09 03:44:20;;;;;;;0.95;0.50;;;6.60;99.90;;;;;;5064138;28;20048;-70
2022/10/09 03:46:46;;;;;;;0.60;0.40;;;6.40;99.90;;;;;;5062047;28;20515;-70
2022/10/09 03:49:12;;;;;;;0.77;0.50;;;6.70;99.90;;;;;;5039903;28;20044;-70
2022/10/09 03:51:37;;;;;;;1.38;0.73;;;6.40;99.90;;;;;;5058597;28;20347;-71
2022/10/09 03:54:03;;;;;;;0.97;0.60;;;6.50;99.90;;;;;;5054858;28;20041;-70
2022/10/09 03:56:29;;;;;;;1.42;0.63;;;6.40;99.90;;;;;;5073153;28;20340;-70
2022/10/09 03:58:55;;;;;;;0.70;0.68;;;6.50;99.90;;;;;;5046295;28;20051;-70
2022/10/09 04:01:20;;;;;;;0.88;0.65;;;6.40;99.90;;;;;;5056163;28;20487;-70
2022/10/09 04:03:46;;;;;;;1.17;0.50;;;6.80;99.90;;;;;;5063772;28;20130;-70
2022/10/09 04:06:12;;;;;;;0.85;0.60;;;6.60;99.90;;;;;;5049879;28;20047;-70
2022/10/09 04:08:37;;;;;;;0.70;0.50;;;6.50;99.90;;;;;;5075682;28;20044;-70
2022/10/09 04:11:03;;;;;;;0.53;0.50;;;6.40;99.90;;;;;;5063184;28;20076;-70
2022/10/09 04:13:29;;;;;;;0.68;0.50;;;6.40;99.90;;;;;;5054865;28;20302;-70
2022/10/09 04:15:55;;;;;;;0.55;0.52;;;6.70;99.90;;;;;;5059809;28;20164;-70
2022/10/09 04:18:21;;;;;;;0.95;0.60;;;6.40;99.90;;;;;;5059872;28;20084;-70
2022/10/09 04:20:51;;;;;;;2.10;0.68;;;6.30;99.90;;;;;;5062141;28;20432;-70
2022/10/09 04:23:23;;;;;;;0.68;0.52;;;6.30;99.90;;;;;;5055343;28;20395;-71
2022/10/09 04:25:53;;;;;;;1.70;0.77;;;6.30;99.90;;;;;;5057524;28;20040;-70
2022/10/09 04:28:19;;;;;;;1.02;0.80;;;6.80;99.90;;;;;;5075218;28;20052;-71
2022/10/09 04:30:45;;;;;;;1.25;0.88;;;6.40;99.90;;;;;;5057948;28;20043;-70
2022/10/09 04:33:10;;;;;;;0.73;0.70;;;6.70;99.90;;;;;;5061999;28;20036;-69
2022/10/09 04:35:40;;;;;;;0.90;0.70;;;6.80;99.90;;;;;;5071916;28;20403;-68
2022/10/09 04:38:06;;;;;;;1.13;0.70;;;6.50;99.90;;;;;;5059369;28;20468;-69
2022/10/09 04:40:32;;;;;;;0.85;0.80;;;6.60;99.90;;;;;;5029939;28;20046;-70
2022/10/09 04:42:57;;;;;;;1.65;0.90;;;6.30;99.90;;;;;;5048743;28;20178;-69
2022/10/09 04:45:23;;;;;;;0.80;0.80;;;6.70;99.90;;;;;;5058425;28;20114;-69
2022/10/09 04:47:49;;;;;;;1.55;1.00;;;6.70;99.90;;;;;;5055035;28;20307;-69
2022/10/09 04:50:15;;;;;;;0.90;0.88;;;6.30;99.90;;;;;;5065455;28;20139;-69
2022/10/09 04:52:41;;;;;;;1.95;0.80;;;6.40;99.90;;;;;;5048299;28;20115;-69
2022/10/09 04:55:07;;;;;;;1.00;0.60;;;6.50;99.90;;;;;;5035797;28;20079;-69
2022/10/09 04:57:32;;;;;;;1.40;0.82;;;6.30;99.90;;;;;;5071637;28;20137;-69
2022/10/09 04:59:58;;;;;;;0.75;0.75;;;6.20;99.90;;;;;;5037954;28;20380;-69
2022/10/09 05:02:24;;;;;;;1.13;0.80;;;6.30;99.90;;;;;;5055503;28;20067;-68
2022/10/09 05:04:49;;;;;;;0.80;0.80;;;6.30;99.90;;;;;;5055818;28;20426;-69
2022/10/09 05:07:15;;;;;;;0.93;0.80;;;6.30;99.90;;;;;;5074710;28;20121;-69
2022/10/09 05:09:41;;;;;;;1.77;0.80;;;6.40;99.90;;;;;;5060160;28;20396;-68
2022/10/09 05:12:07;;;;;;;1.60;0.90;;;6.30;99.90;;;;;;5083863;28;20377;-68
2022/10/09 05:14:32;;;;;;;1.00;0.80;;;6.70;99.90;;;;;;5070949;28;20049;-68
2022/10/09 05:17:01;;;;;;;0.85;0.70;;;6.30;99.90;;;;;;5063851;28;20079;-68
2022/10/09 05:19:27;;;;;;;1.30;0.88;;;6.30;99.90;;;;;;5068524;28;20044;-68
2022/10/09 05:21:53;;;;;;;0.95;0.85;;;6.60;99.90;;;;;;5056890;28;20098;-68
2022/10/09 05:24:19;;;;;;;1.40;1.10;;;6.30;99.90;;;;;;5054582;28;20048;-68
2022/10/09 05:26:45;;;;;;;2.10;1.00;;;6.30;99.90;;;;;;5074616;28;20028;-78
2022/10/09 05:29:10;;;;;;;1.67;0.98;;;6.60;99.90;;;;;;5072234;28;20140;-78
2022/10/09 05:31:36;;;;;;;0.80;0.80;;;6.30;99.90;;;;;;5069368;28;20063;-77
2022/10/09 05:34:03;;;;;;;1.35;0.90;;;6.60;99.90;;;;;;5041151;28;20047;-77
2022/10/09 05:36:29;;;;;;;;;;;6.30;99.90;;;;;;5075138;28;20135;-77
2022/10/09 05:38:55;;;;;;;1.17;1.05;;;6.20;99.90;;;;;;5057616;28;20057;-78
2022/10/09 05:41:21;;;;;;;1.30;0.90;;;6.20;99.90;;;;;;5090785;28;20514;-78
2022/10/09 05:43:48;;;;;;;1.88;1.00;;;6.20;99.90;;;;;;5055412;28;20052;-77
2022/10/09 05:46:20;;;;;;;0.82;0.80;;;6.40;99.90;;;;;;5058869;28;20044;-78
2022/10/09 05:48:52;;;;;;;2.15;1.17;;;6.20;99.90;;;;;;5054139;28;20044;-78
2022/10/09 05:51:20;;;;;;;1.23;0.93;;;6.60;99.90;;;;;;5041759;28;20040;-77
2022/10/09 05:53:46;;;;;;;1.40;1.10;;;6.20;99.90;;;;;;5057445;28;20063;-78
2022/10/09 05:56:34;;;;;;;2.10;1.00;;;6.70;99.90;;;;;;5066086;28;20043;-78
2022/10/09 05:59:04;;;;;;;1.55;1.00;;;6.50;99.90;;;;;;5058400;28;20076;-77
2022/10/09 06:01:35;;;;;;;1.25;1.10;;;6.60;99.90;;;;;;5053689;28;20048;-77
2022/10/09 06:04:03;;;;;;;2.90;1.30;;;6.20;99.90;;;;;;5053253;28;20090;-77
2022/10/09 06:06:31;;;;;;;1.27;1.10;;;6.40;99.90;;;;;;5052118;28;20091;-77
2022/10/09 06:08:57;;;;;;;1.58;1.20;;;6.10;99.90;;;;;;5053145;28;20044;-78
2022/10/09 06:11:27;;;;;;;;;;;6.50;99.90;;;;;;5053794;28;20063;-77
2022/10/09 06:13:54;;;;;;;1.58;1.10;;;6.20;99.90;;;;;;5070066;28;20414;-78
2022/10/09 06:16:23;;;;;;;2.58;1.20;;;6.60;99.90;;;;;;5070060;28;20144;-77
2022/10/09 06:18:49;;;;;;;1.13;1.00;;;6.40;99.90;;;;;;5073267;28;20058;-77
2022/10/09 06:21:15;;;;;;;1.38;1.20;;;6.20;99.90;;;;;;5040179;28;20039;-77
2022/10/09 06:23:42;;;;;;;2.28;1.45;;;6.60;99.90;;;;;;5091323;28;20373;-78
2022/10/09 06:26:10;;;;;;;1.45;1.00;;;6.50;99.90;;;;;;5071701;28;20391;-77
2022/10/09 06:28:36;;;;;;;2.00;0.98;;;6.20;99.90;;;;;;5056195;28;20122;-77
2022/10/09 06:31:08;;;;;;;0.88;0.80;;;6.70;99.90;;;;;;5056738;28;20119;-77
2022/10/09 06:33:36;;;;;;;1.23;0.80;;;6.30;99.90;;;;;;5073132;28;20066;-78
2022/10/09 06:36:08;;;;;;;1.45;1.05;;;6.20;99.90;;;;;;5069754;28;20178;-77
2022/10/09 06:38:35;;;;;;;0.98;0.80;;;6.50;99.90;;;;;;5068378;28;20043;-79
2022/10/09 06:41:03;;;;;;;;;;;6.30;99.90;;;;;;5079242;28;20416;-78
2022/10/09 06:43:29;;;;;;;1.00;0.90;;;6.40;99.90;;;;;;5056416;28;19916;-78
2022/10/09 06:45:55;;;;;;;1.67;1.10;;;6.40;99.90;;;;;;5061989;28;20056;-78
2022/10/09 06:48:21;;;;;;;1.33;1.00;;;7.00;99.90;;;;;;5056893;28;20040;-78
2022/10/09 06:50:46;;;;;;;1.08;0.98;;;7.00;99.90;;;;;;5061253;28;20037;-78
2022/10/09 06:53:12;;;;;;;2.28;1.30;;;7.10;99.90;;;;;;5052695;28;20063;-79
2022/10/09 06:55:38;;;;;;;1.38;1.13;;;7.20;99.90;;;;;;5084980;28;20078;-79
2022/10/09 06:58:03;;;;;;;2.00;1.10;;;7.30;99.90;;;;;;5068762;28;20036;-78
2022/10/09 07:00:29;;;;;;;1.27;1.00;;;6.90;99.90;;;;;;5086380;28;20036;-79
2022/10/09 07:02:55;;;;;;;1.67;1.10;;;7.40;99.90;;;;;;5087222;28;20048;-79
2022/10/09 07:05:20;;;;;;;0.98;0.90;;;7.00;99.90;;;;;;5066288;28;20044;-79
2022/10/09 07:07:46;;;;;;;1.63;1.35;;;7.60;99.90;;;;;;5071518;28;20044;-79
2022/10/09 07:10:12;;;;;;;2.75;2.03;;;7.10;99.90;;;;;;5036377;28;20129;-78
2022/10/09 07:12:38;;;;;;;2.65;1.98;;;7.20;99.90;;;;;;5053582;28;20121;-79
2022/10/09 07:15:05;;;;;;;2.45;1.95;;;7.80;99.90;;;;;;5035530;28;20108;-79
2022/10/09 07:17:31;;;;;;;3.08;2.30;;;7.80;99.90;;;;;;5066801;28;20058;-79
2022/10/09 07:19:57;;;;;;;2.28;1.92;;;8.00;99.90;;;;;;5078533;28;20048;-78
2022/10/09 07:22:22;;;;;;;2.20;1.67;;;7.90;99.90;;;;;;5053279;28;20049;-78
2022/10/09 07:24:49;;;;;;;2.55;1.60;;;8.30;99.90;;;;;;5058461;28;20040;-79
2022/10/09 07:27:16;;;;;;;2.00;1.70;;;8.40;99.90;;;;;;5056300;28;20163;-78
2022/10/09 07:29:41;;;;;;;2.53;2.08;;;8.40;99.90;;;;;;5070974;28;20066;-78
2022/10/09 07:32:07;;;;;;;3.20;2.65;;;8.80;99.90;;;;;;5081848;28;20036;-78
2022/10/09 07:34:32;;;;;;;2.85;2.17;;;8.90;99.90;;;;;;5079605;28;20044;-79
2022/10/09 07:36:58;;;;;;;3.38;2.50;;;9.00;99.90;;;;;;5067098;28;20043;-78
2022/10/09 07:39:24;;;;;;;3.38;2.65;;;9.20;99.90;;;;;;5055475;28;20060;-78
2022/10/09 07:41:51;;;;;;;4.00;2.50;;;9.30;99.90;;;;;;5056851;28;20036;-78
2022/10/09 07:44:17;;;;;;;3.15;2.50;;;9.20;99.90;;;;;;5073619;28;20400;-79
2022/10/09 07:46:43;;;;;;;2.80;2.35;;;9.60;99.90;;;;;;5076782;28;20056;-79
2022/10/09 07:49:09;;;;;;;3.72;2.97;;;9.70;99.90;;;;;;5078603;28;20048;-80
2022/10/09 07:51:35;;;;;;;4.32;2.58;;;9.40;99.90;;;;;;5080398;28;20036;-78
2022/10/09 07:54:01;;;;;;;2.83;2.22;;;9.90;99.90;;;;;;5081622;28;20036;-79
2022/10/09 07:56:30;;;;;;;3.92;2.60;;;10.10;99.90;;;;;;5073738;28;20134;-79
2022/10/09 07:59:01;;;;;;;2.95;2.45;;;9.80;99.90;;;;;;5061306;28;20105;-79
2022/10/09 08:01:28;;;;;;;3.58;2.58;;;10.20;99.90;;;;;;5057584;28;20433;-78
2022/10/09 08:03:54;;;;;;;3.33;2.35;;;10.00;99.90;;;;;;5077553;28;20078;-78
2022/10/09 08:06:20;;;;;;;;;;;9.70;99.90;;;;;;5064884;28;20040;-79
2022/10/09 08:08:54;;;;;;;2.88;1.90;;;9.80;99.90;;;;;;5055979;28;19950;-79
2022/10/09 08:11:22;;;;;;;3.78;1.77;;;10.10;99.90;;;;;;5070887;28;20035;-78
2022/10/09 08:13:48;;;;;;;4.20;1.90;;;10.20;99.90;;;;;;5058147;28;20028;-78
2022/10/09 08:16:14;;;;;;;2.33;1.60;;;9.90;99.90;;;;;;5028170;28;20044;-79
2022/10/09 08:18:40;;;;;;;;;;;10.00;99.90;;;;;;5090813;28;20036;-78
2022/10/09 08:21:09;;;;;;;2.88;1.80;;;10.20;99.90;;;;;;5085505;28;19938;-78
2022/10/09 08:23:35;;;;;;;2.58;1.58;;;10.40;99.90;;;;;;5077550;28;20127;-78
2022/10/09 08:26:01;;;;;;;2.22;1.58;;;10.10;99.90;;;;;;5043234;28;20128;-78
2022/10/09 08:28:27;;;;;;;;;;;10.10;99.90;;;;;;5071994;28;20036;-79
2022/10/09 08:30:53;;;;;;;1.40;1.30;;;10.10;99.90;;;;;;5071184;28;20407;-78
2022/10/09 08:33:20;;;;;;;1.77;1.17;;;10.40;99.90;;;;;;5056222;28;20056;-78
2022/10/09 08:35:50;;;;;;;2.10;1.30;;;10.50;99.90;;;;;;5064013;28;20040;-79
2022/10/09 08:38:16;;;;;;;2.20;1.40;;;10.40;99.90;;;;;;5062683;28;20376;-78
2022/10/09 08:41:02;;;;;;;1.75;1.20;;;10.40;99.90;;;;;;5054868;28;20056;-78
2022/10/09 08:43:34;;;;;;;1.30;0.90;;;10.50;99.90;;;;;;5055377;28;20519;-77
2022/10/09 08:46:04;;;;;;;1.30;0.90;;;10.50;99.90;;;;;;5064859;28;20061;-78
2022/10/09 08:48:38;;;;;;;2.65;1.40;;;10.90;99.90;;;;;;5042169;28;20124;-78
2022/10/09 08:51:08;;;;;;;2.15;1.35;;;10.80;99.90;;;;;;5057880;28;20502;-77
2022/10/09 08:53:53;;;;;;;4.07;1.50;;;11.00;99.90;;;;;;5074563;28;20048;-78
2022/10/09 08:56:19;;;;;;;3.08;1.50;;;11.00;99.90;;;;;;5062898;28;20064;-78
2022/10/09 08:58:44;;;;;;;1.25;1.02;;;11.20;99.90;;;;;;5065739;28;20076;-78
2022/10/09 09:01:21;;;;;;;1.88;1.15;;;11.30;99.90;;;;;;5030214;28;20475;-77
2022/10/09 09:04:03;;;;;;;1.98;1.20;;;11.10;99.90;;;;;;5059835;28;20059;-78
2022/10/09 09:06:43;;;;;;;1.23;0.80;;;11.40;99.90;;;;;;5068133;28;20352;-78
2022/10/09 09:09:17;;;;;;;1.52;0.80;;;11.50;99.90;;;;;;5074558;28;20108;-69
2022/10/09 09:11:53;;;;;;;2.63;1.00;;;11.50;99.90;;;;;;5059261;28;20036;-69
2022/10/09 09:14:41;;;;;;;1.00;0.73;;;11.40;99.90;;;;;;5054229;28;20488;-70
2022/10/09 09:17:29;;;;;;;2.03;1.17;;;11.60;99.90;;;;;;5061897;28;20036;-70
2022/10/09 09:20:21;;;;;;;;;;;11.70;99.90;;;;;;5060063;28;20044;-70
2022/10/09 09:22:48;;;;;;;2.17;0.80;;;11.60;99.90;;;;;;5040997;28;20371;-69
2022/10/09 09:25:23;;;;;;;2.15;0.90;;;11.70;99.90;;;;;;5072463;28;20438;-69
2022/10/09 09:27:51;;;;;;;2.05;1.10;;;11.90;99.90;;;;;;5049396;28;20494;-69
2022/10/09 09:30:31;;;;;;;2.88;1.20;;;11.90;99.90;;;;;;5059057;28;20104;-70
2022/10/09 09:33:14;;;;;;;2.28;0.93;;;12.00;99.90;;;;;;5070439;28;20051;-69
2022/10/09 09:36:01;;;;;;;2.10;1.00;;;12.00;99.90;;;;;;5073061;28;20054;-69
2022/10/09 09:38:27;;;;;;;;;;;12.20;99.90;;;;;;5068499;28;20039;-70
2022/10/09 09:40:52;;;;;;;3.90;1.05;;;12.20;99.90;;;;;;5073905;28;19923;-69
2022/10/09 09:43:21;;;;;;;1.50;0.68;;;12.30;99.90;;;;;;5073761;28;20100;-71
2022/10/09 09:45:51;;;;;;;1.25;0.70;;;12.40;99.90;;;;;;5063557;28;20211;-71
2022/10/09 09:48:27;;;;;;;3.03;0.98;;;12.40;99.90;;;;;;5052998;28;20052;-70
2022/10/09 09:50:53;;;;;;;1.52;0.60;;;12.50;99.90;;;;;;5072261;28;20040;-71
2022/10/09 09:53:26;;;;;;;;;;;12.60;99.90;;;;;;5052208;28;20079;-71
2022/10/09 09:55:53;;;;;;;0.90;0.50;;;12.60;99.90;;;;;;5053390;28;19927;-71
2022/10/09 09:58:20;;;;;;;2.80;0.90;;;12.80;99.90;;;;;;5053568;28;20051;-70
2022/10/09 10:01:19;;;;;;;1.55;0.70;;;12.70;99.90;;;;;;5072193;28;20040;-71
2022/10/09 10:03:50;;;;;;;1.45;0.60;;;12.80;99.90;;;;;;5033262;28;20462;-70
2022/10/09 10:06:24;;;;;;;1.40;0.55;;;12.90;99.90;;;;;;5036304;28;20040;-70
2022/10/09 10:09:17;;;;;;;2.08;0.63;;;13.10;99.90;;;;;;5057726;28;20047;-71
2022/10/09 10:11:48;;;;;;;3.38;0.98;;;13.10;99.90;;;;;;5105996;28;20071;-69
2022/10/09 10:14:15;;;;;;;1.88;0.80;;;13.20;99.90;;;;;;5073924;28;20045;-70
2022/10/09 10:16:41;;;;;;;1.30;0.70;;;13.30;99.90;;;;;;5036044;28;20044;-70
2022/10/09 10:19:18;;;;;;;0.88;0.50;;;13.40;99.90;;;;;;5052945;28;20079;-71
2022/10/09 10:21:54;;;;;;;1.00;0.50;;;13.50;99.90;;;;;;5054214;28;20051;-71
2022/10/09 10:24:26;;;;;;;1.27;0.70;;;13.60;99.90;;;;;;5066551;28;20460;-71
2022/10/09 10:27:03;;;;;;;2.95;1.08;;;13.80;99.90;;;;;;5059990;28;20446;-71
2022/10/09 10:29:44;;;;;;;3.00;0.90;;;13.80;99.90;;;;;;5039644;28;20040;-71
2022/10/09 10:32:31;;;;;;;2.17;0.80;;;14.00;99.90;;;;;;5061865;28;20055;-71
2022/10/09 10:35:02;;;;;;;1.88;0.88;;;14.20;99.90;;;;;;5059812;28;20041;-71
2022/10/09 10:37:38;;;;;;;1.27;0.70;;;14.30;99.90;;;;;;5066247;28;20103;-71
2022/10/09 10:40:16;;;;;;;1.90;0.80;;;14.60;99.90;;;;;;5070114;28;20463;-71
2022/10/09 10:43:05;;;;;;;2.80;0.65;;;14.70;99.90;;;;;;5085247;28;20128;-71
2022/10/09 10:45:48;;;;;;;1.90;0.70;;;15.00;99.90;;;;;;5070255;28;20131;-70
2022/10/09 10:48:22;;;;;;;3.45;0.80;;;15.30;99.90;;;;;;5058505;28;20040;-70
2022/10/09 10:51:06;;;;;;;2.33;0.90;;;15.50;99.90;;;;;;5065869;28;20136;-71
2022/10/09 10:54:03;;;;;;;3.33;0.80;;;15.60;99.90;;;;;;5071276;28;20048;-71
2022/10/09 10:56:34;;;;;;;1.48;0.77;;;15.80;99.90;;;;;;5050953;28;20399;-71
2022/10/09 10:59:19;;;;;;;3.13;0.70;;;16.00;99.90;;;;;;5036962;28;20246;-71
2022/10/09 11:02:37;;;;;;;1.60;0.63;;;16.10;99.90;;;;;;5052182;28;20101;-71
2022/10/09 11:05:26;;;;;;;2.17;0.60;;;16.20;99.90;;;;;;5071959;28;20045;-71
2022/10/09 11:08:13;;;;;;;2.25;0.80;;;16.40;99.90;;;;;;5062476;28;20431;-71
2022/10/09 11:11:17;;;;;;;;;;;;;;;;;;;;;
2022/10/09 11:14:07;;;;;;;2.55;0.80;;;16.50;99.90;;;;;;5070092;28;20050;-71
2022/10/09 11:16:56;;;;;;;2.70;0.80;;;16.50;99.90;;;;;;5060546;28;20162;-72
2022/10/09 11:19:32;;;;;;;1.48;0.85;;;16.50;99.90;;;;;;5047226;28;20036;-71
2022/10/09 11:21:57;;;;;;;2.20;0.60;;;16.50;99.90;;;;;;5058066;28;20160;-70
2022/10/09 11:24:44;;;;;;;1.50;0.70;;;16.60;99.90;;;;;;5067696;28;20571;-71
2022/10/09 11:27:23;;;;;;;1.00;0.60;;;16.70;99.90;;;;;;5068719;28;20480;-71
2022/10/09 11:29:55;;;;;;;1.52;0.60;;;16.90;99.90;;;;;;5060679;28;20509;-71
2022/10/09 11:32:47;;;;;;;2.13;0.80;;;16.90;99.90;;;;;;5063001;28;20362;-70
2022/10/09 11:35:24;;;;;;;1.55;0.60;;;16.90;99.90;;;;;;5031125;28;20092;-70
2022/10/09 11:38:05;;;;;;;2.08;0.75;;;17.00;99.90;;;;;;5064656;28;20057;-72
2022/10/09 11:40:37;;;;;;;3.60;0.77;;;16.90;99.90;;;;;;5058682;28;20426;-72
2022/10/09 11:43:14;;;;;;;2.35;0.70;;;16.80;99.90;;;;;;5042774;28;20481;-79
2022/10/09 11:46:06;;;;;;;1.60;0.70;;;16.90;99.90;;;;;;5073495;28;20048;-79
2022/10/09 11:48:48;;;;;;;2.40;0.90;;;17.10;99.90;;;;;;5065742;28;20072;-72
2022/10/09 11:51:19;;;;;;;2.35;0.80;;;17.20;99.90;;;;;;5074811;28;20049;-78
2022/10/09 11:53:46;;;;;;;2.83;0.93;;;17.30;99.90;;;;;;5051584;28;20032;-79
2022/10/09 11:56:22;;;;;;;1.67;0.60;;;17.40;99.90;;;;;;5086433;28;20049;-79
2022/10/09 11:59:00;;;;;;;0.95;0.50;;;17.50;99.90;;;;;;5065420;28;20139;-80
2022/10/09 12:01:38;;;;;;;1.35;0.50;;;17.60;99.70;;;;;;5056611;28;20062;-79
2022/10/09 12:04:14;;;;;;;2.20;0.70;;;17.70;99.40;;;;;;5071871;28;20079;-79
2022/10/09 12:06:46;;;;;;;;;;;17.70;99.10;;;;;;5076108;28;20464;-79
2022/10/09 12:09:30;;;;;;;1.25;0.50;;;17.70;98.20;;;;;;5075944;28;19931;-79
2022/10/09 12:11:58;;;;;;;1.73;0.43;;;17.80;99.50;;;;;;5067821;28;20046;-79
2022/10/09 12:14:26;;;;;;;1.52;0.70;;;18.00;99.00;;;;;;5075947;28;20044;-79
2022/10/09 12:16:52;;;;;;;1.65;0.60;;;18.00;98.60;;;;;;5076124;28;20618;-79
2022/10/09 12:19:26;;;;;;;;;;;18.00;98.00;;;;;;5066441;28;20052;-79
2022/10/09 12:21:55;;;;;;;1.05;0.40;;;18.10;98.30;;;;;;5064725;28;19917;-79
2022/10/09 12:24:29;;;;;;;2.15;0.68;;;18.20;97.90;;;;;;5060974;28;20048;-78
2022/10/09 12:27:01;;;;;;;1.75;0.68;;;18.30;97.60;;;;;;5061831;28;20482;-78
2022/10/09 12:29:34;;;;;;;3.00;0.65;;;18.20;97.40;;;;;;5062783;28;20032;-78
2022/10/09 12:32:09;;;;;;;3.67;1.15;;;18.20;97.20;;;;;;5064874;28;20140;-71
2022/10/09 12:34:42;;;;;;;1.90;0.52;;;18.20;97.40;;;;;;5054925;28;20083;-71
2022/10/09 12:37:19;;;;;;;2.53;0.85;;;18.30;97.10;;;;;;5055488;28;20044;-71
2022/10/09 12:39:46;;;;;;;1.08;0.55;;;18.30;96.90;;;;;;5072948;28;20071;-72
2022/10/09 12:42:24;;;;;;;2.55;0.77;;;18.30;96.60;;;;;;5074611;28;20045;-71
2022/10/09 12:44:52;;;;;;;1.90;0.73;;;18.30;96.30;;;;;;5083325;28;20074;-71
2022/10/09 12:47:24;;;;;;;1.88;0.68;;;18.30;96.50;;;;;;5064090;28;20085;-70
2022/10/09 12:50:16;;;;;;;1.50;0.55;;;18.30;96.90;;;;;;5061194;28;20044;-71
2022/10/09 12:52:51;;;;;;;1.48;0.70;;;18.50;96.80;;;;;;5053527;28;20059;-70
2022/10/09 12:55:32;;;;;;;3.42;1.00;;;18.50;95.70;;;;;;5053967;28;20044;-71
2022/10/09 12:58:23;;;;;;;3.45;1.00;;;18.30;95.00;;;;;;5055457;28;20036;-70
2022/10/09 13:01:00;;;;;;;1.80;0.65;;;18.50;96.20;;;;;;5082891;28;20043;-70
2022/10/09 13:03:36;;;;;;;2.00;0.80;;;18.60;95.90;;;;;;5064878;28;20056;-78
2022/10/09 13:06:04;;;;;;;1.63;0.88;;;18.70;95.70;;;;;;5054630;28;20041;-78
2022/10/09 13:08:36;;;;;;;1.85;0.68;;;18.70;95.10;;;;;;5054480;28;20082;-78
2022/10/09 13:11:22;;;;;;;2.45;0.63;;;18.80;95.50;;;;;;5060322;28;20048;-77
2022/10/09 13:13:52;;;;;;;2.53;0.50;;;18.90;95.80;;;;;;5078517;28;20031;-77
2022/10/09 13:16:20;;;;;;;1.45;0.68;;;19.10;95.40;;;;;;5087478;28;20040;-77
2022/10/09 13:18:55;;;;;;;3.92;0.98;;;19.20;95.00;;;;;;5058228;28;20072;-77